sensor_id;sensor_type;location;lat;lon;timestamp;P1;durP1;ratioP1;P2;durP2;ratioP2
20491;SDS011;10404;51.468;6.762;2023-06-04T00:02:09;2.00;;;1.23;;
20491;SDS011;10404;51.468;6.762;2023-06-04T00:04:35;1.90;;;1.00;;
20491;SDS011;10404;51.468;6.762;2023-06-04T00:07:01;1.98;;;1.25;;
20491;SDS011;10404;51.468;6.762;2023-06-04T00:09:26;2.33;;;1.48;;
20491;SDS011;10404;51.468;6.762;2023-06-04T00:11:52;2.47;;;1.00;;
20491;SDS011;10404;51.468;6.762;2023-06-04T00:14:18;1.73;;;1.13;;
20491;SDS011;10404;51.468;6.762;2023-06-04T00:16:43;2.10;;;1.10;;
20491;SDS011;10404;51.468;6.762;2023-06-04T00:19:09;2.30;;;1.13;;
20491;SDS011;10404;51.468;6.762;2023-06-04T00:21:35;1.50;;;1.00;;
20491;SDS011;10404;51.468;6.762;2023-06-04T00:24:00;2.10;;;1.15;;
20491;SDS011;10404;51.468;6.762;2023-06-04T00:26:27;2.70;;;1.40;;
20491;SDS011;10404;51.468;6.762;2023-06-04T00:28:56;1.75;;;1.05;;
20491;SDS011;10404;51.468;6.762;2023-06-04T00:31:21;1.65;;;1.20;;
20491;SDS011;10404;51.468;6.762;2023-06-04T00:33:47;2.13;;;1.13;;
20491;SDS011;10404;51.468;6.762;2023-06-04T00:36:13;2.33;;;1.20;;
20491;SDS011;10404;51.468;6.762;2023-06-04T00:38:39;2.17;;;1.13;;
20491;SDS011;10404;51.468;6.762;2023-06-04T00:41:05;2.67;;;1.23;;
20491;SDS011;10404;51.468;6.762;2023-06-04T00:43:30;2.35;;;1.30;;
20491;SDS011;10404;51.468;6.762;2023-06-04T00:45:57;1.98;;;1.20;;
20491;SDS011;10404;51.468;6.762;2023-06-04T00:48:23;1.60;;;1.10;;
20491;SDS011;10404;51.468;6.762;2023-06-04T00:50:52;1.63;;;1.10;;
20491;SDS011;10404;51.468;6.762;2023-06-04T00:53:18;1.67;;;1.05;;
20491;SDS011;10404;51.468;6.762;2023-06-04T00:55:48;1.77;;;1.10;;
20491;SDS011;10404;51.468;6.762;2023-06-04T00:58:15;2.95;;;1.05;;
20491;SDS011;10404;51.468;6.762;2023-06-04T01:00:42;2.03;;;1.38;;
20491;SDS011;10404;51.468;6.762;2023-06-04T01:03:10;2.55;;;1.05;;
20491;SDS011;10404;51.468;6.762;2023-06-04T01:08:20;2.17;;;1.02;;
20491;SDS011;10404;51.468;6.762;2023-06-04T01:10:55;2.47;;;0.93;;
20491;SDS011;10404;51.468;6.762;2023-06-04T01:13:21;1.70;;;1.00;;
20491;SDS011;10404;51.468;6.762;2023-06-04T01:15:47;2.83;;;1.15;;
20491;SDS011;10404;51.468;6.762;2023-06-04T01:18:18;4.43;;;1.27;;
20491;SDS011;10404;51.468;6.762;2023-06-04T01:20:56;1.85;;;1.05;;
20491;SDS011;10404;51.468;6.762;2023-06-04T01:28:55;1.85;;;0.93;;
20491;SDS011;10404;51.468;6.762;2023-06-04T01:31:22;2.83;;;1.23;;
20491;SDS011;10404;51.468;6.762;2023-06-04T01:33:54;2.92;;;0.90;;
20491;SDS011;10404;51.468;6.762;2023-06-04T01:36:22;1.83;;;1.00;;
20491;SDS011;10404;51.468;6.762;2023-06-04T01:38:48;2.05;;;1.02;;
20491;SDS011;10404;51.468;6.762;2023-06-04T01:41:15;1.65;;;0.90;;
20491;SDS011;10404;51.468;6.762;2023-06-04T01:43:41;2.70;;;1.05;;
20491;SDS011;10404;51.468;6.762;2023-06-04T01:46:06;1.95;;;0.93;;
20491;SDS011;10404;51.468;6.762;2023-06-04T01:48:32;1.52;;;0.88;;
20491;SDS011;10404;51.468;6.762;2023-06-04T01:50:58;3.35;;;1.23;;
20491;SDS011;10404;51.468;6.762;2023-06-04T01:53:23;2.28;;;0.70;;
20491;SDS011;10404;51.468;6.762;2023-06-04T01:55:49;1.23;;;0.80;;
20491;SDS011;10404;51.468;6.762;2023-06-04T01:58:18;1.98;;;1.13;;
20491;SDS011;10404;51.468;6.762;2023-06-04T02:00:52;2.80;;;1.10;;
20491;SDS011;10404;51.468;6.762;2023-06-04T02:03:25;1.30;;;0.93;;
20491;SDS011;10404;51.468;6.762;2023-06-04T02:05:51;1.67;;;0.90;;
20491;SDS011;10404;51.468;6.762;2023-06-04T02:08:17;2.63;;;1.05;;
20491;SDS011;10404;51.468;6.762;2023-06-04T02:10:44;1.80;;;0.77;;
20491;SDS011;10404;51.468;6.762;2023-06-04T02:13:11;1.45;;;0.80;;
20491;SDS011;10404;51.468;6.762;2023-06-04T02:15:37;1.67;;;1.00;;
20491;SDS011;10404;51.468;6.762;2023-06-04T02:18:16;1.33;;;0.68;;
20491;SDS011;10404;51.468;6.762;2023-06-04T02:20:43;1.63;;;1.17;;
20491;SDS011;10404;51.468;6.762;2023-06-04T02:23:10;1.88;;;0.73;;
20491;SDS011;10404;51.468;6.762;2023-06-04T02:25:36;1.60;;;0.93;;
20491;SDS011;10404;51.468;6.762;2023-06-04T02:28:02;1.92;;;0.88;;
20491;SDS011;10404;51.468;6.762;2023-06-04T02:30:27;1.17;;;0.73;;
20491;SDS011;10404;51.468;6.762;2023-06-04T02:32:53;1.58;;;0.80;;
20491;SDS011;10404;51.468;6.762;2023-06-04T02:35:20;1.65;;;1.05;;
20491;SDS011;10404;51.468;6.762;2023-06-04T02:37:48;1.85;;;0.77;;
20491;SDS011;10404;51.468;6.762;2023-06-04T02:40:14;1.90;;;1.00;;
20491;SDS011;10404;51.468;6.762;2023-06-04T02:42:39;1.70;;;0.82;;
20491;SDS011;10404;51.468;6.762;2023-06-04T02:45:05;1.73;;;1.13;;
20491;SDS011;10404;51.468;6.762;2023-06-04T02:47:31;1.27;;;0.90;;
20491;SDS011;10404;51.468;6.762;2023-06-04T02:49:57;2.17;;;1.45;;
20491;SDS011;10404;51.468;6.762;2023-06-04T02:52:22;2.20;;;0.85;;
20491;SDS011;10404;51.468;6.762;2023-06-04T02:54:50;2.70;;;0.75;;
20491;SDS011;10404;51.468;6.762;2023-06-04T02:57:16;1.88;;;0.70;;
20491;SDS011;10404;51.468;6.762;2023-06-04T02:59:41;3.85;;;1.30;;
20491;SDS011;10404;51.468;6.762;2023-06-04T03:02:07;1.98;;;0.70;;
20491;SDS011;10404;51.468;6.762;2023-06-04T03:04:33;1.80;;;1.05;;
20491;SDS011;10404;51.468;6.762;2023-06-04T03:07:01;1.65;;;0.90;;
20491;SDS011;10404;51.468;6.762;2023-06-04T03:09:28;1.45;;;0.73;;
20491;SDS011;10404;51.468;6.762;2023-06-04T03:11:56;1.40;;;0.73;;
20491;SDS011;10404;51.468;6.762;2023-06-04T03:14:24;2.20;;;0.80;;
20491;SDS011;10404;51.468;6.762;2023-06-04T03:17:00;1.83;;;0.73;;
20491;SDS011;10404;51.468;6.762;2023-06-04T03:19:32;1.63;;;0.80;;
20491;SDS011;10404;51.468;6.762;2023-06-04T03:22:00;1.42;;;0.70;;
20491;SDS011;10404;51.468;6.762;2023-06-04T03:24:30;1.30;;;0.77;;
20491;SDS011;10404;51.468;6.762;2023-06-04T03:26:57;1.85;;;0.75;;
20491;SDS011;10404;51.468;6.762;2023-06-04T03:29:22;2.40;;;1.00;;
20491;SDS011;10404;51.468;6.762;2023-06-04T03:31:48;2.33;;;0.95;;
20491;SDS011;10404;51.468;6.762;2023-06-04T03:34:14;1.88;;;0.80;;
20491;SDS011;10404;51.468;6.762;2023-06-04T03:36:39;2.42;;;0.60;;
20491;SDS011;10404;51.468;6.762;2023-06-04T03:39:05;1.98;;;1.00;;
20491;SDS011;10404;51.468;6.762;2023-06-04T03:41:30;1.80;;;0.85;;
20491;SDS011;10404;51.468;6.762;2023-06-04T03:43:56;0.88;;;0.60;;
20491;SDS011;10404;51.468;6.762;2023-06-04T03:46:21;1.77;;;0.60;;
20491;SDS011;10404;51.468;6.762;2023-06-04T03:48:50;1.17;;;0.63;;
20491;SDS011;10404;51.468;6.762;2023-06-04T03:51:15;2.42;;;0.63;;
20491;SDS011;10404;51.468;6.762;2023-06-04T03:53:41;2.50;;;0.98;;
20491;SDS011;10404;51.468;6.762;2023-06-04T03:56:06;1.30;;;0.82;;
20491;SDS011;10404;51.468;6.762;2023-06-04T03:58:34;1.20;;;0.70;;
20491;SDS011;10404;51.468;6.762;2023-06-04T04:01:00;1.05;;;0.60;;
20491;SDS011;10404;51.468;6.762;2023-06-04T04:03:26;1.73;;;0.90;;
20491;SDS011;10404;51.468;6.762;2023-06-04T04:05:56;1.33;;;0.90;;
20491;SDS011;10404;51.468;6.762;2023-06-04T04:08:22;1.48;;;0.90;;
20491;SDS011;10404;51.468;6.762;2023-06-04T04:10:48;2.20;;;0.88;;
20491;SDS011;10404;51.468;6.762;2023-06-04T04:13:14;1.95;;;0.73;;
20491;SDS011;10404;51.468;6.762;2023-06-04T04:15:40;1.88;;;0.70;;
20491;SDS011;10404;51.468;6.762;2023-06-04T04:18:05;1.70;;;0.88;;
20491;SDS011;10404;51.468;6.762;2023-06-04T04:20:33;2.10;;;0.80;;
20491;SDS011;10404;51.468;6.762;2023-06-04T04:22:59;1.15;;;0.70;;
20491;SDS011;10404;51.468;6.762;2023-06-04T04:25:25;1.50;;;0.85;;
20491;SDS011;10404;51.468;6.762;2023-06-04T04:27:51;1.85;;;0.70;;
20491;SDS011;10404;51.468;6.762;2023-06-04T04:30:17;2.80;;;1.33;;
20491;SDS011;10404;51.468;6.762;2023-06-04T04:32:43;2.63;;;0.90;;
20491;SDS011;10404;51.468;6.762;2023-06-04T04:35:13;1.42;;;0.90;;
20491;SDS011;10404;51.468;6.762;2023-06-04T04:37:43;3.65;;;0.90;;
20491;SDS011;10404;51.468;6.762;2023-06-04T04:40:09;3.33;;;0.82;;
20491;SDS011;10404;51.468;6.762;2023-06-04T04:42:36;2.25;;;0.90;;
20491;SDS011;10404;51.468;6.762;2023-06-04T04:45:02;3.22;;;1.15;;
20491;SDS011;10404;51.468;6.762;2023-06-04T04:47:29;2.10;;;1.10;;
20491;SDS011;10404;51.468;6.762;2023-06-04T04:49:54;1.75;;;0.82;;
20491;SDS011;10404;51.468;6.762;2023-06-04T04:52:20;2.72;;;0.82;;
20491;SDS011;10404;51.468;6.762;2023-06-04T04:54:46;2.55;;;1.02;;
20491;SDS011;10404;51.468;6.762;2023-06-04T04:57:11;1.52;;;0.82;;
20491;SDS011;10404;51.468;6.762;2023-06-04T04:59:37;2.08;;;0.80;;
20491;SDS011;10404;51.468;6.762;2023-06-04T05:02:03;2.30;;;0.82;;
20491;SDS011;10404;51.468;6.762;2023-06-04T05:04:28;3.03;;;0.90;;
20491;SDS011;10404;51.468;6.762;2023-06-04T05:06:54;2.25;;;0.90;;
20491;SDS011;10404;51.468;6.762;2023-06-04T05:09:19;3.13;;;0.88;;
20491;SDS011;10404;51.468;6.762;2023-06-04T05:11:45;1.65;;;0.75;;
20491;SDS011;10404;51.468;6.762;2023-06-04T05:14:11;2.40;;;1.00;;
20491;SDS011;10404;51.468;6.762;2023-06-04T05:16:37;2.17;;;0.77;;
20491;SDS011;10404;51.468;6.762;2023-06-04T05:19:03;1.90;;;0.93;;
20491;SDS011;10404;51.468;6.762;2023-06-04T05:21:29;1.75;;;1.02;;
20491;SDS011;10404;51.468;6.762;2023-06-04T05:23:54;1.70;;;0.95;;
20491;SDS011;10404;51.468;6.762;2023-06-04T05:26:21;2.25;;;0.85;;
20491;SDS011;10404;51.468;6.762;2023-06-04T05:28:48;1.33;;;0.90;;
20491;SDS011;10404;51.468;6.762;2023-06-04T05:31:14;1.98;;;0.70;;
20491;SDS011;10404;51.468;6.762;2023-06-04T05:33:40;1.20;;;0.68;;
20491;SDS011;10404;51.468;6.762;2023-06-04T05:36:06;3.58;;;0.90;;
20491;SDS011;10404;51.468;6.762;2023-06-04T05:38:32;1.50;;;0.82;;
20491;SDS011;10404;51.468;6.762;2023-06-04T05:40:58;1.60;;;0.80;;
20491;SDS011;10404;51.468;6.762;2023-06-04T05:43:23;1.88;;;0.90;;
20491;SDS011;10404;51.468;6.762;2023-06-04T05:45:49;1.48;;;0.77;;
20491;SDS011;10404;51.468;6.762;2023-06-04T05:48:16;2.92;;;0.93;;
20491;SDS011;10404;51.468;6.762;2023-06-04T05:50:42;1.92;;;0.82;;
20491;SDS011;10404;51.468;6.762;2023-06-04T05:53:07;1.80;;;0.98;;
20491;SDS011;10404;51.468;6.762;2023-06-04T05:55:33;1.65;;;0.80;;
20491;SDS011;10404;51.468;6.762;2023-06-04T05:57:59;2.53;;;1.15;;
20491;SDS011;10404;51.468;6.762;2023-06-04T06:00:25;1.95;;;0.90;;
20491;SDS011;10404;51.468;6.762;2023-06-04T06:02:51;1.48;;;0.90;;
20491;SDS011;10404;51.468;6.762;2023-06-04T06:05:17;2.80;;;0.90;;
20491;SDS011;10404;51.468;6.762;2023-06-04T06:07:44;3.80;;;1.05;;
20491;SDS011;10404;51.468;6.762;2023-06-04T06:10:10;2.78;;;1.00;;
20491;SDS011;10404;51.468;6.762;2023-06-04T06:12:36;2.10;;;1.00;;
20491;SDS011;10404;51.468;6.762;2023-06-04T06:15:02;2.72;;;1.17;;
20491;SDS011;10404;51.468;6.762;2023-06-04T06:17:28;2.10;;;0.90;;
20491;SDS011;10404;51.468;6.762;2023-06-04T06:19:54;2.80;;;1.10;;
20491;SDS011;10404;51.468;6.762;2023-06-04T06:22:20;2.75;;;1.15;;
20491;SDS011;10404;51.468;6.762;2023-06-04T06:24:47;1.73;;;1.00;;
20491;SDS011;10404;51.468;6.762;2023-06-04T06:27:14;2.55;;;1.10;;
20491;SDS011;10404;51.468;6.762;2023-06-04T06:29:41;3.28;;;0.98;;
20491;SDS011;10404;51.468;6.762;2023-06-04T06:32:07;2.95;;;1.85;;
20491;SDS011;10404;51.468;6.762;2023-06-04T06:34:33;2.08;;;1.10;;
20491;SDS011;10404;51.468;6.762;2023-06-04T06:36:58;1.50;;;0.98;;
20491;SDS011;10404;51.468;6.762;2023-06-04T06:39:24;1.63;;;0.70;;
20491;SDS011;10404;51.468;6.762;2023-06-04T06:41:50;2.65;;;1.13;;
20491;SDS011;10404;51.468;6.762;2023-06-04T06:44:15;2.15;;;0.90;;
20491;SDS011;10404;51.468;6.762;2023-06-04T06:46:41;1.73;;;0.90;;
20491;SDS011;10404;51.468;6.762;2023-06-04T06:49:07;1.85;;;0.82;;
20491;SDS011;10404;51.468;6.762;2023-06-04T06:51:33;2.70;;;1.05;;
20491;SDS011;10404;51.468;6.762;2023-06-04T06:53:58;1.63;;;0.90;;
20491;SDS011;10404;51.468;6.762;2023-06-04T06:56:24;1.10;;;0.60;;
20491;SDS011;10404;51.468;6.762;2023-06-04T06:58:51;1.77;;;0.90;;
20491;SDS011;10404;51.468;6.762;2023-06-04T07:01:16;2.33;;;0.60;;
20491;SDS011;10404;51.468;6.762;2023-06-04T07:03:42;1.58;;;0.85;;
20491;SDS011;10404;51.468;6.762;2023-06-04T07:06:08;1.67;;;0.90;;
20491;SDS011;10404;51.468;6.762;2023-06-04T07:08:33;2.22;;;0.90;;
20491;SDS011;10404;51.468;6.762;2023-06-04T07:11:00;1.83;;;0.90;;
20491;SDS011;10404;51.468;6.762;2023-06-04T07:13:28;1.52;;;0.90;;
20491;SDS011;10404;51.468;6.762;2023-06-04T07:15:53;1.85;;;0.73;;
20491;SDS011;10404;51.468;6.762;2023-06-04T07:18:19;2.00;;;0.77;;
20491;SDS011;10404;51.468;6.762;2023-06-04T07:20:45;1.42;;;1.08;;
20491;SDS011;10404;51.468;6.762;2023-06-04T07:23:10;1.65;;;0.80;;
20491;SDS011;10404;51.468;6.762;2023-06-04T07:25:36;1.33;;;0.80;;
20491;SDS011;10404;51.468;6.762;2023-06-04T07:28:02;2.38;;;0.85;;
20491;SDS011;10404;51.468;6.762;2023-06-04T07:30:29;2.60;;;0.98;;
20491;SDS011;10404;51.468;6.762;2023-06-04T07:32:58;2.40;;;1.15;;
20491;SDS011;10404;51.468;6.762;2023-06-04T07:35:24;1.50;;;1.00;;
20491;SDS011;10404;51.468;6.762;2023-06-04T07:37:49;2.47;;;1.23;;
20491;SDS011;10404;51.468;6.762;2023-06-04T07:40:15;1.42;;;0.65;;
20491;SDS011;10404;51.468;6.762;2023-06-04T07:42:42;4.20;;;1.50;;
20491;SDS011;10404;51.468;6.762;2023-06-04T07:45:10;2.03;;;0.90;;
20491;SDS011;10404;51.468;6.762;2023-06-04T07:47:36;4.05;;;1.65;;
20491;SDS011;10404;51.468;6.762;2023-06-04T07:50:02;2.15;;;0.93;;
20491;SDS011;10404;51.468;6.762;2023-06-04T07:52:28;2.20;;;1.20;;
20491;SDS011;10404;51.468;6.762;2023-06-04T07:54:54;3.35;;;1.45;;
20491;SDS011;10404;51.468;6.762;2023-06-04T07:57:20;2.13;;;1.20;;
20491;SDS011;10404;51.468;6.762;2023-06-04T07:59:46;3.90;;;1.25;;
20491;SDS011;10404;51.468;6.762;2023-06-04T08:02:11;2.42;;;1.17;;
20491;SDS011;10404;51.468;6.762;2023-06-04T08:04:37;3.05;;;1.30;;
20491;SDS011;10404;51.468;6.762;2023-06-04T08:07:03;2.30;;;1.15;;
20491;SDS011;10404;51.468;6.762;2023-06-04T08:09:30;2.22;;;1.02;;
20491;SDS011;10404;51.468;6.762;2023-06-04T08:11:55;2.25;;;1.38;;
20491;SDS011;10404;51.468;6.762;2023-06-04T08:14:21;3.80;;;1.60;;
20491;SDS011;10404;51.468;6.762;2023-06-04T08:16:47;2.00;;;1.00;;
20491;SDS011;10404;51.468;6.762;2023-06-04T08:19:13;2.92;;;1.08;;
20491;SDS011;10404;51.468;6.762;2023-06-04T08:21:40;3.22;;;1.20;;
20491;SDS011;10404;51.468;6.762;2023-06-04T08:24:08;2.95;;;1.20;;
20491;SDS011;10404;51.468;6.762;2023-06-04T08:26:34;2.35;;;1.20;;
20491;SDS011;10404;51.468;6.762;2023-06-04T08:29:01;1.67;;;1.10;;
20491;SDS011;10404;51.468;6.762;2023-06-04T08:31:29;2.05;;;1.25;;
20491;SDS011;10404;51.468;6.762;2023-06-04T08:33:55;1.95;;;1.23;;
20491;SDS011;10404;51.468;6.762;2023-06-04T08:36:20;2.33;;;1.30;;
20491;SDS011;10404;51.468;6.762;2023-06-04T08:38:46;2.42;;;1.65;;
20491;SDS011;10404;51.468;6.762;2023-06-04T08:41:16;2.10;;;1.23;;
20491;SDS011;10404;51.468;6.762;2023-06-04T08:43:48;2.75;;;1.10;;
20491;SDS011;10404;51.468;6.762;2023-06-04T08:46:15;1.77;;;1.20;;
20491;SDS011;10404;51.468;6.762;2023-06-04T08:48:42;2.28;;;1.00;;
20491;SDS011;10404;51.468;6.762;2023-06-04T08:51:08;3.47;;;2.00;;
20491;SDS011;10404;51.468;6.762;2023-06-04T08:53:35;2.35;;;1.15;;
20491;SDS011;10404;51.468;6.762;2023-06-04T08:56:02;2.92;;;1.35;;
20491;SDS011;10404;51.468;6.762;2023-06-04T08:58:30;2.08;;;1.25;;
20491;SDS011;10404;51.468;6.762;2023-06-04T09:00:57;3.33;;;1.45;;
20491;SDS011;10404;51.468;6.762;2023-06-04T09:03:23;2.25;;;1.30;;
20491;SDS011;10404;51.468;6.762;2023-06-04T09:05:50;2.53;;;1.33;;
20491;SDS011;10404;51.468;6.762;2023-06-04T09:08:17;4.60;;;1.45;;
20491;SDS011;10404;51.468;6.762;2023-06-04T09:10:44;3.22;;;1.90;;
20491;SDS011;10404;51.468;6.762;2023-06-04T09:13:14;1.90;;;1.38;;
20491;SDS011;10404;51.468;6.762;2023-06-04T09:15:42;3.45;;;1.27;;
20491;SDS011;10404;51.468;6.762;2023-06-04T09:18:07;2.85;;;1.80;;
20491;SDS011;10404;51.468;6.762;2023-06-04T09:20:33;2.20;;;1.52;;
20491;SDS011;10404;51.468;6.762;2023-06-04T09:22:59;4.50;;;1.60;;
20491;SDS011;10404;51.468;6.762;2023-06-04T09:25:25;3.33;;;1.73;;
20491;SDS011;10404;51.468;6.762;2023-06-04T09:27:52;2.95;;;1.65;;
20491;SDS011;10404;51.468;6.762;2023-06-04T09:30:20;2.25;;;1.58;;
20491;SDS011;10404;51.468;6.762;2023-06-04T09:32:47;3.10;;;1.50;;
20491;SDS011;10404;51.468;6.762;2023-06-04T09:35:16;1.73;;;1.35;;
20491;SDS011;10404;51.468;6.762;2023-06-04T09:37:51;3.67;;;1.77;;
20491;SDS011;10404;51.468;6.762;2023-06-04T09:42:44;2.97;;;1.30;;
20491;SDS011;10404;51.468;6.762;2023-06-04T09:45:10;2.28;;;1.50;;
20491;SDS011;10404;51.468;6.762;2023-06-04T09:47:40;2.50;;;1.65;;
20491;SDS011;10404;51.468;6.762;2023-06-04T09:50:12;2.00;;;1.45;;
20491;SDS011;10404;51.468;6.762;2023-06-04T09:52:38;3.60;;;1.55;;
20491;SDS011;10404;51.468;6.762;2023-06-04T09:55:15;3.72;;;1.60;;
20491;SDS011;10404;51.468;6.762;2023-06-04T09:57:46;2.50;;;1.70;;
20491;SDS011;10404;51.468;6.762;2023-06-04T10:00:13;3.20;;;1.67;;
20491;SDS011;10404;51.468;6.762;2023-06-04T10:02:46;3.22;;;2.00;;
20491;SDS011;10404;51.468;6.762;2023-06-04T10:05:12;4.38;;;2.10;;
20491;SDS011;10404;51.468;6.762;2023-06-04T10:07:39;2.42;;;1.70;;
20491;SDS011;10404;51.468;6.762;2023-06-04T10:10:11;2.40;;;1.80;;
20491;SDS011;10404;51.468;6.762;2023-06-04T10:12:41;3.60;;;1.80;;
20491;SDS011;10404;51.468;6.762;2023-06-04T10:15:11;3.15;;;1.70;;
20491;SDS011;10404;51.468;6.762;2023-06-04T10:17:38;2.92;;;2.25;;
20491;SDS011;10404;51.468;6.762;2023-06-04T10:20:06;3.85;;;2.20;;
20491;SDS011;10404;51.468;6.762;2023-06-04T10:22:33;2.58;;;1.73;;
20491;SDS011;10404;51.468;6.762;2023-06-04T10:25:03;2.28;;;1.65;;
20491;SDS011;10404;51.468;6.762;2023-06-04T10:27:30;3.08;;;1.80;;
20491;SDS011;10404;51.468;6.762;2023-06-04T10:29:57;3.22;;;1.83;;
20491;SDS011;10404;51.468;6.762;2023-06-04T10:32:26;3.33;;;1.55;;
20491;SDS011;10404;51.468;6.762;2023-06-04T10:34:55;2.78;;;1.73;;
20491;SDS011;10404;51.468;6.762;2023-06-04T10:37:23;2.17;;;1.90;;
20491;SDS011;10404;51.468;6.762;2023-06-04T10:39:51;2.03;;;1.60;;
20491;SDS011;10404;51.468;6.762;2023-06-04T10:42:21;1.90;;;1.70;;
20491;SDS011;10404;51.468;6.762;2023-06-04T10:44:48;2.80;;;2.47;;
20491;SDS011;10404;51.468;6.762;2023-06-04T10:47:21;2.38;;;1.73;;
20491;SDS011;10404;51.468;6.762;2023-06-04T10:49:51;2.67;;;1.80;;
20491;SDS011;10404;51.468;6.762;2023-06-04T10:52:18;4.07;;;2.38;;
20491;SDS011;10404;51.468;6.762;2023-06-04T10:54:44;2.08;;;1.88;;
20491;SDS011;10404;51.468;6.762;2023-06-04T10:57:16;2.55;;;1.83;;
20491;SDS011;10404;51.468;6.762;2023-06-04T10:59:58;2.42;;;1.75;;
20491;SDS011;10404;51.468;6.762;2023-06-04T11:02:25;2.88;;;2.03;;
20491;SDS011;10404;51.468;6.762;2023-06-04T11:04:58;2.65;;;2.00;;
20491;SDS011;10404;51.468;6.762;2023-06-04T11:07:44;3.53;;;2.20;;
20491;SDS011;10404;51.468;6.762;2023-06-04T11:10:11;2.97;;;2.22;;
20491;SDS011;10404;51.468;6.762;2023-06-04T11:12:42;3.53;;;1.90;;
20491;SDS011;10404;51.468;6.762;2023-06-04T11:15:08;4.13;;;1.98;;
20491;SDS011;10404;51.468;6.762;2023-06-04T11:17:34;2.33;;;1.98;;
20491;SDS011;10404;51.468;6.762;2023-06-04T11:20:00;2.10;;;1.80;;
20491;SDS011;10404;51.468;6.762;2023-06-04T11:22:26;2.50;;;1.90;;
20491;SDS011;10404;51.468;6.762;2023-06-04T11:24:57;2.40;;;2.17;;
20491;SDS011;10404;51.468;6.762;2023-06-04T11:27:24;2.92;;;2.17;;
20491;SDS011;10404;51.468;6.762;2023-06-04T11:29:50;3.08;;;2.08;;
20491;SDS011;10404;51.468;6.762;2023-06-04T11:32:23;2.60;;;1.73;;
20491;SDS011;10404;51.468;6.762;2023-06-04T11:34:49;3.45;;;1.80;;
20491;SDS011;10404;51.468;6.762;2023-06-04T11:37:15;3.88;;;2.20;;
20491;SDS011;10404;51.468;6.762;2023-06-04T11:39:41;2.45;;;1.83;;
20491;SDS011;10404;51.468;6.762;2023-06-04T11:42:09;3.15;;;2.00;;
20491;SDS011;10404;51.468;6.762;2023-06-04T11:44:35;2.15;;;1.95;;
20491;SDS011;10404;51.468;6.762;2023-06-04T11:47:04;2.47;;;2.20;;
20491;SDS011;10404;51.468;6.762;2023-06-04T11:49:31;2.72;;;2.53;;
20491;SDS011;10404;51.468;6.762;2023-06-04T11:51:59;4.32;;;2.63;;
20491;SDS011;10404;51.468;6.762;2023-06-04T11:54:25;2.53;;;2.33;;
20491;SDS011;10404;51.468;6.762;2023-06-04T11:56:51;3.50;;;2.50;;
20491;SDS011;10404;51.468;6.762;2023-06-04T11:59:17;3.28;;;2.40;;
20491;SDS011;10404;51.468;6.762;2023-06-04T12:01:44;3.40;;;2.38;;
20491;SDS011;10404;51.468;6.762;2023-06-04T12:04:14;3.45;;;2.55;;
20491;SDS011;10404;51.468;6.762;2023-06-04T12:06:57;4.28;;;2.25;;
20491;SDS011;10404;51.468;6.762;2023-06-04T12:09:26;2.40;;;2.20;;
20491;SDS011;10404;51.468;6.762;2023-06-04T12:12:06;2.60;;;2.40;;
20491;SDS011;10404;51.468;6.762;2023-06-04T12:14:32;4.07;;;2.20;;
20491;SDS011;10404;51.468;6.762;2023-06-04T12:17:05;2.53;;;2.25;;
20491;SDS011;10404;51.468;6.762;2023-06-04T12:19:47;3.55;;;1.98;;
20491;SDS011;10404;51.468;6.762;2023-06-04T12:22:13;2.78;;;1.92;;
20491;SDS011;10404;51.468;6.762;2023-06-04T12:24:46;2.45;;;2.25;;
20491;SDS011;10404;51.468;6.762;2023-06-04T12:27:12;3.28;;;1.85;;
20491;SDS011;10404;51.468;6.762;2023-06-04T12:29:38;3.10;;;2.00;;
20491;SDS011;10404;51.468;6.762;2023-06-04T12:32:04;2.88;;;2.25;;
20491;SDS011;10404;51.468;6.762;2023-06-04T12:34:34;4.35;;;2.20;;
20491;SDS011;10404;51.468;6.762;2023-06-04T12:37:01;3.90;;;2.00;;
20491;SDS011;10404;51.468;6.762;2023-06-04T12:39:28;4.30;;;2.20;;
20491;SDS011;10404;51.468;6.762;2023-06-04T12:41:54;2.55;;;2.35;;
20491;SDS011;10404;51.468;6.762;2023-06-04T12:44:20;3.55;;;2.30;;
20491;SDS011;10404;51.468;6.762;2023-06-04T12:46:46;4.47;;;2.45;;
20491;SDS011;10404;51.468;6.762;2023-06-04T12:49:12;2.45;;;2.25;;
20491;SDS011;10404;51.468;6.762;2023-06-04T12:51:37;2.83;;;2.20;;
20491;SDS011;10404;51.468;6.762;2023-06-04T12:54:03;3.03;;;2.65;;
20491;SDS011;10404;51.468;6.762;2023-06-04T12:56:29;2.97;;;2.65;;
20491;SDS011;10404;51.468;6.762;2023-06-04T12:58:55;2.65;;;2.40;;
20491;SDS011;10404;51.468;6.762;2023-06-04T13:01:21;2.58;;;2.10;;
20491;SDS011;10404;51.468;6.762;2023-06-04T13:03:47;2.35;;;2.15;;
20491;SDS011;10404;51.468;6.762;2023-06-04T13:06:12;3.13;;;2.13;;
20491;SDS011;10404;51.468;6.762;2023-06-04T13:08:38;3.70;;;2.60;;
20491;SDS011;10404;51.468;6.762;2023-06-04T13:11:03;2.95;;;2.63;;
20491;SDS011;10404;51.468;6.762;2023-06-04T13:13:30;3.80;;;2.60;;
20491;SDS011;10404;51.468;6.762;2023-06-04T13:15:56;3.72;;;2.67;;
20491;SDS011;10404;51.468;6.762;2023-06-04T13:18:21;3.05;;;2.40;;
20491;SDS011;10404;51.468;6.762;2023-06-04T13:20:47;2.72;;;2.53;;
20491;SDS011;10404;51.468;6.762;2023-06-04T13:23:16;3.92;;;3.00;;
20491;SDS011;10404;51.468;6.762;2023-06-04T13:25:42;3.00;;;2.42;;
20491;SDS011;10404;51.468;6.762;2023-06-04T13:28:08;3.78;;;2.70;;
20491;SDS011;10404;51.468;6.762;2023-06-04T13:30:36;3.50;;;2.85;;
20491;SDS011;10404;51.468;6.762;2023-06-04T13:33:03;3.00;;;2.78;;
20491;SDS011;10404;51.468;6.762;2023-06-04T13:35:29;4.28;;;3.10;;
20491;SDS011;10404;51.468;6.762;2023-06-04T13:37:56;2.67;;;2.30;;
20491;SDS011;10404;51.468;6.762;2023-06-04T13:40:21;3.22;;;2.92;;
20491;SDS011;10404;51.468;6.762;2023-06-04T13:42:47;3.33;;;2.70;;
20491;SDS011;10404;51.468;6.762;2023-06-04T13:45:13;3.17;;;2.78;;
20491;SDS011;10404;51.468;6.762;2023-06-04T13:47:38;3.30;;;2.90;;
20491;SDS011;10404;51.468;6.762;2023-06-04T13:50:05;2.63;;;2.13;;
20491;SDS011;10404;51.468;6.762;2023-06-04T13:52:31;2.78;;;2.58;;
20491;SDS011;10404;51.468;6.762;2023-06-04T13:54:58;2.78;;;2.58;;
20491;SDS011;10404;51.468;6.762;2023-06-04T13:57:24;3.28;;;2.97;;
20491;SDS011;10404;51.468;6.762;2023-06-04T13:59:50;2.75;;;2.55;;
20491;SDS011;10404;51.468;6.762;2023-06-04T14:02:16;2.58;;;2.28;;
20491;SDS011;10404;51.468;6.762;2023-06-04T14:04:42;2.90;;;2.30;;
20491;SDS011;10404;51.468;6.762;2023-06-04T14:07:07;3.22;;;2.65;;
20491;SDS011;10404;51.468;6.762;2023-06-04T14:09:33;3.30;;;2.70;;
20491;SDS011;10404;51.468;6.762;2023-06-04T14:12:00;3.47;;;2.70;;
20491;SDS011;10404;51.468;6.762;2023-06-04T14:14:27;3.17;;;2.88;;
20491;SDS011;10404;51.468;6.762;2023-06-04T14:16:56;3.28;;;2.88;;
20491;SDS011;10404;51.468;6.762;2023-06-04T14:19:22;3.22;;;2.67;;
20491;SDS011;10404;51.468;6.762;2023-06-04T14:21:48;4.30;;;2.90;;
20491;SDS011;10404;51.468;6.762;2023-06-04T14:24:14;3.28;;;2.97;;
20491;SDS011;10404;51.468;6.762;2023-06-04T14:26:39;2.85;;;2.55;;
20491;SDS011;10404;51.468;6.762;2023-06-04T14:29:05;3.63;;;2.45;;
20491;SDS011;10404;51.468;6.762;2023-06-04T14:31:31;3.58;;;2.70;;
20491;SDS011;10404;51.468;6.762;2023-06-04T14:33:56;3.58;;;2.88;;
20491;SDS011;10404;51.468;6.762;2023-06-04T14:36:22;3.90;;;2.70;;
20491;SDS011;10404;51.468;6.762;2023-06-04T14:38:47;2.72;;;2.47;;
20491;SDS011;10404;51.468;6.762;2023-06-04T14:41:14;4.00;;;3.50;;
20491;SDS011;10404;51.468;6.762;2023-06-04T14:43:40;2.95;;;2.25;;
20491;SDS011;10404;51.468;6.762;2023-06-04T14:46:05;3.63;;;3.30;;
20491;SDS011;10404;51.468;6.762;2023-06-04T14:48:31;3.00;;;2.67;;
20491;SDS011;10404;51.468;6.762;2023-06-04T14:50:57;3.03;;;2.60;;
20491;SDS011;10404;51.468;6.762;2023-06-04T14:53:23;3.00;;;2.58;;
20491;SDS011;10404;51.468;6.762;2023-06-04T14:55:48;3.85;;;2.67;;
20491;SDS011;10404;51.468;6.762;2023-06-04T14:58:14;2.85;;;2.63;;